CheckWX is a tool to help pilots better visualize weather data.  It is not intended as a substitute for an official pre-flight weather briefing.

07:07:37 UTC

DIAP METAR
Port Bouet Airport
Abidjan, Côte D’Ivoire
Current

38 mins ago

DIAP 210630Z 30003KT 8000 SCT012 27/25 Q1011 NOSIG
Observed
May-21 @ 06:30 UTC
Wind
  • 300° at 3 KTS
Visibility
7,998 meters
Flight Rules
MVFR
Cloud Levels
  • Scattered at 1,200' AGL
Temperature
27°C / 81°F
Dewpoint
25°C / 77°F
Heat Index
31°C / 88°F
Humidity
89%
Altimeter
29.85" Hg
Pressure
1010.92 hPa
Previous

1 hour ago

DIAP 210600Z 20003KT 8000 SCT012 27/25 Q1010 NOSIG
Observed
May-21 @ 06:00 UTC
Wind
  • 200° at 3 KTS
Visibility
7,998 meters
Flight Rules
MVFR
Cloud Levels
  • Scattered at 1,200' AGL
Temperature
27°C / 81°F
Dewpoint
25°C / 77°F
Heat Index
31°C / 88°F
Humidity
89%
Altimeter
29.82" Hg
Pressure
1009.92 hPa
Previous

2 hours ago

DIAP 210530Z 24004KT 9999 SCT012 27/25 Q1010 NOSIG
Observed
May-21 @ 05:30 UTC
Wind
  • 240° at 4 KTS
Visibility
10,000+ meters
Flight Rules
VFR
Cloud Levels
  • Scattered at 1,200' AGL
Temperature
27°C / 81°F
Dewpoint
25°C / 77°F
Heat Index
31°C / 88°F
Humidity
89%
Altimeter
29.82" Hg
Pressure
1009.92 hPa